Details From LIEO - OLBIA COSTA SMERALDA
To LIRS - GROSSETO
Flight Number -
Tags decoded
Created
Modified
Stats Distance 206 nm / 381 km
Max Altitude 0 ft / 0 m
Waypoints 6
Social Downloads 0
Likes 0
Share VATSIM

Download

Looking for another format? Having issues loading an existing format? Contact us
Advertisement - Login to hide

Notes

Requested: LIEO LFKF LFKJ LFKS LFKB LIRS

Route

LIEO LFKF LFKJ LFKS LFKB LIRS

ID Type Via Altitude Latitude Longitude Leg Dist Tot Dist Heading (true) Name
O LIEO APT - 0 ft / 0 m 40.89866˚ 9.51763˚ - 0 nm - OLBIA COSTA SMERALDA
LFKF APT - 0 ft / 0 m 41.50206˚ 9.09696˚ 40 nm 40 nm 332° / 332° Figari Sud Corse
LFKJ APT - 0 ft / 0 m 41.92289˚ 8.79959˚ 28 nm 69 nm 332° / 332° Napoleon Bonaparte
LFKS APT - 0 ft / 0 m 41.92462˚ 9.40532˚ 27 nm 96 nm 90° / 90° Solenzara
LFKB APT - 0 ft / 0 m 42.55251˚ 9.48371˚ 37 nm 134 nm 5° / 5° Bastia Poretta
O LIRS APT - 0 ft / 0 m 42.76028˚ 11.07198˚ 71 nm 205 nm 79° / 80° GROSSETO

Altitude Profile

Advertisement - Login to hide

Weather


0- 5 10 15 20 25 30 35+ Temperature / ° C

Clouds and Precipitation
Forecast for 2018-05-21 00:00 UTC. Updated 3 hours ago

Ground ~20,000 ft ~40,000 ft Winds

LIEO

Details ICAO LIEO (OLB)
Name OLBIA COSTA SMERALDA
Region Italy
Timezone Europe/Rome (UTC+2.0)
Stats Elevation 37 ft / 11 m (AMSL)
Location 40.898661° 9.517629°
Runways 1
Magnetic Variation 2.488° E

METAR

LIEO 210050Z 18003KT 150V230 CAVOK 16/15 Q1012

Decode

TAF

TAF LIEO 202300Z 2100/2124 VRB05KT 9999 SCT030 TEMPO 2103/2106 RA TEMPO 2108/2118 4000 TSRA BECMG 2109/2111 07010KT BECMG 2118/2120 VRB05KT

Decode

Departure Runways

ID Width Length Bearing (true) Bearing (mag) Surface Threshold Offset Overrun Length
06 148 ft / 45 m 8,013 ft / 2,442 m 55.30° 52.81° Asphalt 805 ft / 245 m 180 ft / 55 m
24 148 ft / 45 m 8,013 ft / 2,442 m 235.31° 232.82° Asphalt 495 ft / 151 m 180 ft / 55 m

LIRS

Details ICAO LIRS (GRS)
Name GROSSETO
Region Italy
Timezone Europe/Rome (UTC+2.0)
Stats Elevation 15 ft / 5 m (AMSL)
Location 42.760275° 11.071980°
Runways 2
Magnetic Variation 2.856° E

METAR

LIRS 210055Z 03006KT CAVOK 16/14 Q1012

Decode

TAF

Not found

Destination Runways

ID Width Length Bearing (true) Bearing (mag) Surface Threshold Offset Overrun Length
03 148 ft / 45 m 9,826 ft / 2,995 m 30.87° 28.01° Asphalt 317 ft / 97 m 0 ft / 0 m
03R 80 ft / 24 m 7,731 ft / 2,356 m 30.70° 27.84° Asphalt 0 ft / 0 m 1,091 ft / 333 m
21 148 ft / 45 m 9,826 ft / 2,995 m 210.88° 208.02° Asphalt 0 ft / 0 m 0 ft / 0 m
21L 80 ft / 24 m 7,731 ft / 2,356 m 210.71° 207.85° Asphalt 0 ft / 0 m 875 ft / 267 m